Time;durP1;ratioP1;P1;durP2;ratioP2;P2;SDS_P1;SDS_P2;PMS_P1;PMS_P2;Temp;Humidity;BMP_temperature;BMP_pressure;BME280_temperature;BME280_humidity;BME280_pressure;Samples;Min_cycle;Max_cycle;Signal;HPM_P1;HPM_P2
2021/12/11 00:01:39;;;;;;;;;;;;;;;;;;5134644;27;19948;-85
2021/12/11 00:04:07;;;;;;;;;;;;;;;;;;5134119;27;20022;-86
2021/12/11 00:06:33;;;;;;;;;;;;;;;;;;5134514;27;20022;-85
2021/12/11 00:09:00;;;;;;;;;;;;;;;;;;5134232;28;19989;-85
2021/12/11 00:11:28;;;;;;;;;;;;;;;;;;5134748;27;20038;-84
2021/12/11 00:13:54;;;;;;;;;;;;;;;;;;5134043;27;20035;-86
2021/12/11 00:16:22;;;;;;;;;;;;;;;;;;5134296;28;20049;-85
2021/12/11 00:18:49;;;;;;;;;;;;;;;;;;5133766;27;19949;-86
2021/12/11 00:21:16;;;;;;;;;;;;;;;;;;5134205;27;20470;-85
2021/12/11 00:23:43;;;;;;;;;;;;;;;;;;5134215;27;19947;-84
2021/12/11 00:26:10;;;;;;;;;;;;;;;;;;5134222;28;20032;-85
2021/12/11 00:28:37;;;;;;;;;;;;;;;;;;5133723;27;19987;-85
2021/12/11 00:31:04;;;;;;;;;;;;;;;;;;5134299;27;20031;-85
2021/12/11 00:33:32;;;;;;;;;;;;;;;;;;5133841;27;20037;-85
2021/12/11 00:35:59;;;;;;;;;;;;;;;;;;5134744;27;20027;-85
2021/12/11 00:38:26;;;;;;;;;;;;;;;;;;5135671;27;20463;-85
2021/12/11 00:40:53;;;;;;;;;;;;;;;;;;5138423;27;19967;-86
2021/12/11 00:43:21;;;;;;;;;;;;;;;;;;5137808;27;19978;-86
2021/12/11 00:45:48;;;;;;;;;;;;;;;;;;5137753;27;20468;-85
2021/12/11 00:48:15;;;;;;;;;;;;;;;;;;5137430;27;19989;-85
2021/12/11 00:50:42;;;;;;;;;;;;;;;;;;5137825;27;20028;-86
2021/12/11 00:53:09;;;;;;;;;;;;;;;;;;5137254;27;20458;-85
2021/12/11 00:55:36;;;;;;;;;;;;;;;;;;5137711;27;20034;-85
2021/12/11 00:58:03;;;;;;;;;;;;;;;;;;5137168;27;20058;-85
2021/12/11 01:00:30;;;;;;;;;;;;;;;;;;5137530;27;19983;-85
2021/12/11 01:02:57;;;;;;;;;;;;;;;;;;5137084;27;20030;-85
2021/12/11 01:05:24;;;;;;;;;;;;;;;;;;5137694;27;19949;-85
2021/12/11 01:07:53;;;;;;;;;;;;;;;;;;5137184;27;19980;-86
2021/12/11 01:10:22;;;;;;;;;;;;;;;;;;5137169;27;20447;-86
2021/12/11 01:12:54;;;;;;;;;;;;;;;;;;5136608;27;19941;-85
2021/12/11 01:15:21;;;;;;;;;;;;;;;;;;5136906;27;19944;-85
2021/12/11 01:17:59;;;;;;;;;;;;;;;;;;5136950;27;20060;-85
2021/12/11 01:20:33;;;;;;;;;;;;;;;;;;5137079;27;19935;-85
2021/12/11 01:23:00;;;;;;;;;;;;;;;;;;5126679;27;19942;-85
2021/12/11 01:25:27;;;;;;;;;;;;;;;;;;5136963;27;20387;-85
2021/12/11 01:27:54;;;;;;;;;;;;;;;;;;5136605;27;19988;-85
2021/12/11 01:30:21;;;;;;;;;;;;;;;;;;5136957;27;20035;-85
2021/12/11 01:32:48;;;;;;;;;;;;;;;;;;5136547;27;20045;-85
2021/12/11 01:35:16;;;;;;;;;;;;;;;;;;5136461;27;20031;-85
2021/12/11 01:37:43;;;;;;;;;;;;;;;;;;5136533;27;19960;-85
2021/12/11 01:40:10;;;;;;;;;;;;;;;;;;5136470;27;20054;-85
2021/12/11 01:42:38;;;;;;;;;;;;;;;;;;5136763;27;19963;-84
2021/12/11 01:45:05;;;;;;;;;;;;;;;;;;5136518;27;19945;-86
2021/12/11 01:47:32;;;;;;;;;;;;;;;;;;5136416;27;20043;-85
2021/12/11 01:49:59;;;;;;;;;;;;;;;;;;5136261;27;20034;-85
2021/12/11 01:52:32;;;;;;;;;;;;;;;;;;5136289;27;20034;-85
2021/12/11 01:54:59;;;;;;;;;;;;;;;;;;5136302;27;19949;-85
2021/12/11 01:57:26;;;;;;;;;;;;;;;;;;5136110;27;20393;-85
2021/12/11 01:59:54;;;;;;;;;;;;;;;;;;5136346;27;19988;-85
2021/12/11 02:02:21;;;;;;;;;;;;;;;;;;5136158;27;19939;-85
2021/12/11 02:04:48;;;;;;;;;;;;;;;;;;5136175;27;20045;-85
2021/12/11 02:07:15;;;;;;;;;;;;;;;;;;5136002;27;20028;-85
2021/12/11 02:09:44;;;;;;;;;;;;;;;;;;5135947;27;20030;-85
2021/12/11 02:12:11;;;;;;;;;;;;;;;;;;5136215;27;19971;-85
2021/12/11 02:14:42;;;;;;;;;;;;;;;;;;5135924;27;20002;-85
2021/12/11 02:17:09;;;;;;;;;;;;;;;;;;5135917;27;20016;-83
2021/12/11 02:19:39;;;;;;;;;;;;;;;;;;5136020;27;19992;-86
2021/12/11 02:22:06;;;;;;;;;;;;;;;;;;5121070;27;19948;-85
2021/12/11 02:24:33;;;;;;;;;;;;;;;;;;5135726;27;20001;-85
2021/12/11 02:27:00;;;;;;;;;;;;;;;;;;5135915;27;19949;-85
2021/12/11 02:29:27;;;;;;;;;;;;;;;;;;5135696;27;20088;-86
2021/12/11 02:31:54;;;;;;;;;;;;;;;;;;5135351;27;19984;-84
2021/12/11 02:34:21;;;;;;;;;;;;;;;;;;5135252;27;19977;-85
2021/12/11 02:36:48;;;;;;;;;;;;;;;;;;5135452;27;20366;-85
2021/12/11 02:39:15;;;;;;;;;;;;;;;;;;5135143;27;20004;-85
2021/12/11 02:41:42;;;;;;;;;;;;;;;;;;5135701;27;20005;-85
2021/12/11 02:44:10;;;;;;;;;;;;;;;;;;5135094;27;20040;-85
2021/12/11 02:46:39;;;;;;;;;;;;;;;;;;5134807;27;20301;-85
2021/12/11 02:49:06;;;;;;;;;;;;;;;;;;5135021;27;20032;-85
2021/12/11 02:51:33;;;;;;;;;;;;;;;;;;5135323;27;19998;-85
2021/12/11 02:54:00;;;;;;;;;;;;;;;;;;5135009;27;19942;-85
2021/12/11 02:56:27;;;;;;;;;;;;;;;;;;5135040;27;20436;-85
2021/12/11 02:58:56;;;;;;;;;;;;;;;;;;5135201;27;19980;-85
2021/12/11 03:01:26;;;;;;;;;;;;;;;;;;5134221;27;19944;-85
2021/12/11 03:03:57;;;;;;;;;;;;;;;;;;5135052;27;20001;-84
2021/12/11 03:06:34;;;;;;;;;;;;;;;;;;5134896;27;19954;-85
2021/12/11 03:09:01;;;;;;;;;;;;;;;;;;5134175;27;19943;-85
2021/12/11 03:11:28;;;;;;;;;;;;;;;;;;5134623;27;20424;-85
2021/12/11 03:13:55;;;;;;;;;;;;;;;;;;5134888;27;19995;-85
2021/12/11 03:16:22;;;;;;;;;;;;;;;;;;5134835;27;19937;-85
2021/12/11 03:18:49;;;;;;;;;;;;;;;;;;5134958;27;20062;-85
2021/12/11 03:21:16;;;;;;;;;;;;;;;;;;5134139;27;20035;-85
2021/12/11 03:23:43;;;;;;;;;;;;;;;;;;5134785;27;20054;-84
2021/12/11 03:26:10;;;;;;;;;;;;;;;;;;5134555;27;20033;-85
2021/12/11 03:28:37;;;;;;;;;;;;;;;;;;5134575;27;19996;-85
2021/12/11 03:31:04;;;;;;;;;;;;;;;;;;5134297;27;20405;-85
2021/12/11 03:33:31;;;;;;;;;;;;;;;;;;5134518;27;20054;-85
2021/12/11 03:35:58;;;;;;;;;;;;;;;;;;5134595;27;20036;-85
2021/12/11 03:38:25;;;;;;;;;;;;;;;;;;5134425;27;20036;-85
2021/12/11 03:40:52;;;;;;;;;;;;;;;;;;5134593;27;20062;-85
2021/12/11 03:43:18;;;;;;;;;;;;;;;;;;5134256;27;20463;-85
2021/12/11 03:45:45;;;;;;;;;;;;;;;;;;5134658;28;20031;-85
2021/12/11 03:48:12;;;;;;;;;;;;;;;;;;5134436;28;20031;-84
2021/12/11 03:50:39;;;;;;;;;;;;;;;;;;5134418;27;19947;-85
2021/12/11 03:53:06;;;;;;;;;;;;;;;;;;5134508;27;20030;-85
2021/12/11 03:55:33;;;;;;;;;;;;;;;;;;5133985;27;20036;-85
2021/12/11 03:58:01;;;;;;;;;;;;;;;;;;5133680;27;20489;-84
2021/12/11 04:00:28;;;;;;;;;;;;;;;;;;5134676;27;19944;-85
2021/12/11 04:03:02;;;;;;;;;;;;;;;;;;5134323;27;19944;-85
2021/12/11 04:05:29;;;;;;;;;;;;;;;;;;5135054;28;19944;-85
2021/12/11 04:07:57;;;;;;;;;;;;;;;;;;5134521;28;20037;-85
2021/12/11 04:10:27;;;;;;;;;;;;;;;;;;5134167;27;19952;-85
2021/12/11 04:12:54;;;;;;;;;;;;;;;;;;5135168;27;19944;-85
2021/12/11 04:15:21;;;;;;;;;;;;;;;;;;5138510;27;19956;-85
2021/12/11 04:17:48;;;;;;;;;;;;;;;;;;5137970;27;20046;-85
2021/12/11 04:20:15;;;;;;;;;;;;;;;;;;5138162;27;20359;-85
2021/12/11 04:22:42;;;;;;;;;;;;;;;;;;5137858;27;19990;-85
2021/12/11 04:25:09;;;;;;;;;;;;;;;;;;5138244;27;20042;-85
2021/12/11 04:27:36;;;;;;;;;;;;;;;;;;5137735;27;20370;-85
2021/12/11 04:30:04;;;;;;;;;;;;;;;;;;5138094;27;20036;-85
2021/12/11 04:32:33;;;;;;;;;;;;;;;;;;5137691;27;20459;-85
2021/12/11 04:35:00;;;;;;;;;;;;;;;;;;5117490;28;19978;-85
2021/12/11 04:37:29;;;;;;;;;;;;;;;;;;5117277;28;20009;-86
2021/12/11 04:39:59;;;;;;;;;;;;;;;;;;5137593;27;19967;-85
2021/12/11 04:42:36;;;;;;;;;;;;;;;;;;5137815;27;20401;-85
2021/12/11 04:45:03;;;;;;;;;;;;;;;;;;5137753;27;20321;-85
2021/12/11 04:47:35;;;;;;;;;;;;;;;;;;5137702;27;20406;-85
2021/12/11 04:50:03;;;;;;;;;;;;;;;;;;5137504;27;20382;-85
2021/12/11 04:52:38;;;;;;;;;;;;;;;;;;5137788;27;20005;-85
2021/12/11 04:55:18;;;;;;;;;;;;;;;;;;5137514;27;19947;-84
2021/12/11 04:58:05;;;;;;;;;;;;;;;;;;5137213;27;19970;-85
2021/12/11 05:00:43;;;;;;;;;;;;;;;;;;5137783;27;20045;-85
2021/12/11 05:03:31;;;;;;;;;;;;;;;;;;5137533;27;20036;-86
2021/12/11 05:06:19;;;;;;;;;;;;;;;;;;5137573;27;20335;-86
2021/12/11 05:09:18;;;;;;;;;;;;;;;;;;5137381;27;19943;-85
2021/12/11 05:11:51;;;;;;;;;;;;;;;;;;5137744;27;20009;-85
2021/12/11 05:14:18;;;;;;;;;;;;;;;;;;5136948;27;20335;-85
2021/12/11 05:16:45;;;;;;;;;;;;;;;;;;5137222;27;20044;-85
2021/12/11 05:19:12;;;;;;;;;;;;;;;;;;5136957;27;20051;-85
2021/12/11 05:21:39;;;;;;;;;;;;;;;;;;5136847;27;19979;-86
2021/12/11 05:24:06;;;;;;;;;;;;;;;;;;5136882;27;20045;-85
2021/12/11 05:26:33;;;;;;;;;;;;;;;;;;5136906;27;20160;-85
2021/12/11 05:29:00;;;;;;;;;;;;;;;;;;5137101;27;19954;-85
2021/12/11 05:31:27;;;;;;;;;;;;;;;;;;5136494;27;20033;-85
2021/12/11 05:33:54;;;;;;;;;;;;;;;;;;5137186;27;19986;-85
2021/12/11 05:36:21;;;;;;;;;;;;;;;;;;5136497;27;20039;-85
2021/12/11 05:38:49;;;;;;;;;;;;;;;;;;5136784;27;20043;-85
2021/12/11 05:41:16;;;;;;;;;;;;;;;;;;5136269;27;20008;-85
2021/12/11 05:43:43;;;;;;;;;;;;;;;;;;5136696;27;20042;-85
2021/12/11 05:46:10;;;;;;;;;;;;;;;;;;5136346;27;19984;-86
2021/12/11 05:48:37;;;;;;;;;;;;;;;;;;5136794;27;20022;-85
2021/12/11 05:51:04;;;;;;;;;;;;;;;;;;5136549;27;20037;-85
2021/12/11 05:53:32;;;;;;;;;;;;;;;;;;5136500;27;20040;-85
2021/12/11 05:55:59;;;;;;;;;;;;;;;;;;5135917;27;20003;-84
2021/12/11 05:58:45;;;;;;;;;;;;;;;;;;5136229;27;19958;-85
2021/12/11 06:01:12;;;;;;;;;;;;;;;;;;5136192;27;19979;-85
2021/12/11 06:03:39;;;;;;;;;;;;;;;;;;5136219;27;20000;-85
2021/12/11 06:06:06;;;;;;;;;;;;;;;;;;5135836;27;20044;-85
2021/12/11 06:08:33;;;;;;;;;;;;;;;;;;5136123;27;20385;-85
2021/12/11 06:11:00;;;;;;;;;;;;;;;;;;5135788;27;20022;-85
2021/12/11 06:13:29;;;;;;;;;;;;;;;;;;5136187;27;20339;-85
2021/12/11 06:15:56;;;;;;;;;;;;;;;;;;5136033;27;19993;-85
2021/12/11 06:18:24;;;;;;;;;;;;;;;;;;5135845;27;20049;-85
2021/12/11 06:20:51;;;;;;;;;;;;;;;;;;5135723;27;19947;-85
2021/12/11 06:23:18;;;;;;;;;;;;;;;;;;5135836;27;19945;-86
2021/12/11 06:25:45;;;;;;;;;;;;;;;;;;5135575;27;20021;-84
2021/12/11 06:28:12;;;;;;;;;;;;;;;;;;5135461;27;20032;-85
2021/12/11 06:30:39;;;;;;;;;;;;;;;;;;5135747;27;20371;-84
2021/12/11 06:33:06;;;;;;;;;;;;;;;;;;5135581;27;19992;-84
2021/12/11 06:35:33;;;;;;;;;;;;;;;;;;5134638;27;20041;-85
2021/12/11 06:38:00;;;;;;;;;;;;;;;;;;5135204;27;20058;-84
2021/12/11 06:40:26;;;;;;;;;;;;;;;;;;5135418;27;20506;-85
2021/12/11 06:42:53;;;;;;;;;;;;;;;;;;5135696;27;20036;-85
2021/12/11 06:45:20;;;;;;;;;;;;;;;;;;5134868;27;20040;-85
2021/12/11 06:47:47;;;;;;;;;;;;;;;;;;5135354;27;20043;-85
2021/12/11 06:50:14;;;;;;;;;;;;;;;;;;5135067;27;19995;-85
2021/12/11 06:52:41;;;;;;;;;;;;;;;;;;5135145;27;19999;-85
2021/12/11 06:55:08;;;;;;;;;;;;;;;;;;5135406;27;20046;-85
2021/12/11 06:57:35;;;;;;;;;;;;;;;;;;5135147;27;19989;-85
2021/12/11 07:00:02;;;;;;;;;;;;;;;;;;5134710;27;20027;-85
2021/12/11 07:02:29;;;;;;;;;;;;;;;;;;5134971;27;20373;-84
2021/12/11 07:04:56;;;;;;;;;;;;;;;;;;5134927;27;19986;-85
2021/12/11 07:07:26;;;;;;;;;;;;;;;;;;5135181;27;19994;-84
2021/12/11 07:09:53;;;;;;;;;;;;;;;;;;5134816;27;19982;-85
2021/12/11 07:12:21;;;;;;;;;;;;;;;;;;5134598;27;20039;-85
2021/12/11 07:14:48;;;;;;;;;;;;;;;;;;5135010;27;20073;-85
2021/12/11 07:17:15;;;;;;;;;;;;;;;;;;5134794;27;19992;-85
2021/12/11 07:19:42;;;;;;;;;;;;;;;;;;5134737;27;20059;-85
2021/12/11 07:22:09;;;;;;;;;;;;;;;;;;5134756;27;20374;-84
2021/12/11 07:24:36;;;;;;;;;;;;;;;;;;5135661;27;20035;-85
2021/12/11 07:27:03;;;;;;;;;;;;;;;;;;5135541;27;19997;-84
2021/12/11 07:29:31;;;;;;;;;;;;;;;;;;5134737;27;19990;-85
2021/12/11 07:31:58;;;;;;;;;;;;;;;;;;5134918;27;19946;-84
2021/12/11 07:34:25;;;;;;;;;;;;;;;;;;5134414;27;20046;-85
2021/12/11 07:36:52;;;;;;;;;;;;;;;;;;5134624;27;19982;-85
2021/12/11 07:39:19;;;;;;;;;;;;;;;;;;5134089;27;20407;-85
2021/12/11 07:41:46;;;;;;;;;;;;;;;;;;5134556;27;20041;-84
2021/12/11 07:44:13;;;;;;;;;;;;;;;;;;5134448;27;20000;-85
2021/12/11 07:46:39;;;;;;;;;;;;;;;;;;5135867;27;20061;-84
2021/12/11 07:49:06;;;;;;;;;;;;;;;;;;5140891;27;20469;-85
2021/12/11 07:51:33;;;;;;;;;;;;;;;;;;5141692;27;20032;-84
2021/12/11 07:54:00;;;;;;;;;;;;;;;;;;5141253;27;20031;-85
2021/12/11 07:56:27;;;;;;;;;;;;;;;;;;5141243;27;20040;-85
2021/12/11 07:58:54;;;;;;;;;;;;;;;;;;5140739;27;20056;-85
2021/12/11 08:01:21;;;;;;;;;;;;;;;;;;5141247;27;20186;-85
2021/12/11 08:03:48;;;;;;;;;;;;;;;;;;5141133;27;20034;-84
2021/12/11 08:06:15;;;;;;;;;;;;;;;;;;5141414;27;20033;-85
2021/12/11 08:08:42;;;;;;;;;;;;;;;;;;5140893;27;19991;-85
2021/12/11 08:11:11;;;;;;;;;;;;;;;;;;5141263;27;20044;-85
2021/12/11 08:13:38;;;;;;;;;;;;;;;;;;5140810;27;19924;-84
2021/12/11 08:16:05;;;;;;;;;;;;;;;;;;5140967;27;20434;-85
2021/12/11 08:18:32;;;;;;;;;;;;;;;;;;5140973;27;20036;-85
2021/12/11 08:20:59;;;;;;;;;;;;;;;;;;5141301;27;20038;-85
2021/12/11 08:23:26;;;;;;;;;;;;;;;;;;5140983;27;20035;-85
2021/12/11 08:25:53;;;;;;;;;;;;;;;;;;5141183;27;20368;-85
2021/12/11 08:28:20;;;;;;;;;;;;;;;;;;5140814;27;20382;-86
2021/12/11 08:30:47;;;;;;;;;;;;;;;;;;5140482;27;19983;-85
2021/12/11 08:33:14;;;;;;;;;;;;;;;;;;5140957;27;19990;-85
2021/12/11 08:35:41;;;;;;;;;;;;;;;;;;5140802;27;20033;-84
2021/12/11 08:38:08;;;;;;;;;;;;;;;;;;5140933;27;20444;-86
2021/12/11 08:40:35;;;;;;;;;;;;;;;;;;5140657;27;20020;-85
2021/12/11 08:43:02;;;;;;;;;;;;;;;;;;5140903;27;19997;-85
2021/12/11 08:45:44;;;;;;;;;;;;;;;;;;5141290;27;20050;-85
2021/12/11 08:48:11;;;;;;;;;;;;;;;;;;5141162;27;20363;-85
2021/12/11 08:50:38;;;;;;;;;;;;;;;;;;5140691;27;20029;-84
2021/12/11 08:53:05;;;;;;;;;;;;;;;;;;5135439;27;20034;-84
2021/12/11 08:55:32;;;;;;;;;;;;;;;;;;5138554;27;20383;-83
2021/12/11 08:57:59;;;;;;;;;;;;;;;;;;5140007;27;19946;-85
2021/12/11 09:00:26;;;;;;;;;;;;;;;;;;5136765;27;20010;-85
2021/12/11 09:02:53;;;;;;;;;;;;;;;;;;5137181;27;20469;-84
2021/12/11 09:05:20;;;;;;;;;;;;;;;;;;5137354;27;20041;-84
2021/12/11 09:07:47;;;;;;;;;;;;;;;;;;5136951;27;19985;-84
2021/12/11 09:10:14;;;;;;;;;;;;;;;;;;5137317;27;19969;-85
2021/12/11 09:12:41;;;;;;;;;;;;;;;;;;5137432;27;20038;-85
2021/12/11 09:15:08;;;;;;;;;;;;;;;;;;5137497;27;20030;-85
2021/12/11 09:17:35;;;;;;;;;;;;;;;;;;5137291;27;19944;-84
2021/12/11 09:20:02;;;;;;;;;;;;;;;;;;5136699;27;20042;-84
2021/12/11 09:22:29;;;;;;;;;;;;;;;;;;5137113;27;19997;-84
2021/12/11 09:24:56;;;;;;;;;;;;;;;;;;5136661;27;20435;-84
2021/12/11 09:27:23;;;;;;;;;;;;;;;;;;5136846;27;19997;-85
2021/12/11 09:29:50;;;;;;;;;;;;;;;;;;5136687;27;20026;-84
2021/12/11 09:32:17;;;;;;;;;;;;;;;;;;5136875;27;20039;-84
2021/12/11 09:34:44;;;;;;;;;;;;;;;;;;5136575;27;20439;-85
2021/12/11 09:37:11;;;;;;;;;;;;;;;;;;5136844;27;20035;-83
2021/12/11 09:39:38;;;;;;;;;;;;;;;;;;5136374;27;20001;-84
2021/12/11 09:42:05;;;;;;;;;;;;;;;;;;5136909;27;20046;-84
2021/12/11 09:44:33;;;;;;;;;;;;;;;;;;5136360;27;20050;-84
2021/12/11 09:47:00;;;;;;;;;;;;;;;;;;5136666;27;19986;-84
2021/12/11 09:49:27;;;;;;;;;;;;;;;;;;5136388;27;19938;-85
2021/12/11 09:52:01;;;;;;;;;;;;;;;;;;5136100;27;19988;-85
2021/12/11 09:54:28;;;;;;;;;;;;;;;;;;5136344;27;19939;-84
2021/12/11 09:56:57;;;;;;;;;;;;;;;;;;5136609;27;20000;-85
2021/12/11 09:59:24;;;;;;;;;;;;;;;;;;5135904;27;19957;-85
2021/12/11 10:01:51;;;;;;;;;;;;;;;;;;5136358;27;20370;-84
2021/12/11 10:04:18;;;;;;;;;;;;;;;;;;5136302;27;20035;-84
2021/12/11 10:06:52;;;;;;;;;;;;;;;;;;5136309;27;20035;-83
2021/12/11 10:09:19;;;;;;;;;;;;;;;;;;5135922;27;19959;-84
2021/12/11 10:11:46;;;;;;;;;;;;;;;;;;5134794;27;19946;-84
2021/12/11 10:14:13;;;;;;;;;;;;;;;;;;5135961;27;19993;-85
2021/12/11 10:16:40;;;;;;;;;;;;;;;;;;5135901;27;19987;-85
2021/12/11 10:19:06;;;;;;;;;;;;;;;;;;5135865;27;20338;-84
2021/12/11 10:21:33;;;;;;;;;;;;;;;;;;5135967;27;20032;-84
2021/12/11 10:24:00;;;;;;;;;;;;;;;;;;5136083;27;19997;-85
2021/12/11 10:26:27;;;;;;;;;;;;;;;;;;5135392;27;19996;-84
2021/12/11 10:28:54;;;;;;;;;;;;;;;;;;5135721;27;20380;-84
2021/12/11 10:31:21;;;;;;;;;;;;;;;;;;5135360;27;20041;-84
2021/12/11 10:33:48;;;;;;;;;;;;;;;;;;5135499;27;20369;-84
2021/12/11 10:36:15;;;;;;;;;;;;;;;;;;5135552;27;20027;-84
2021/12/11 10:38:42;;;;;;;;;;;;;;;;;;5135494;27;20042;-84
2021/12/11 10:41:10;;;;;;;;;;;;;;;;;;5135119;27;20008;-85
2021/12/11 10:43:37;;;;;;;;;;;;;;;;;;5135268;27;19998;-85
2021/12/11 10:46:04;;;;;;;;;;;;;;;;;;5134929;27;20513;-84
2021/12/11 10:48:31;;;;;;;;;;;;;;;;;;5135686;27;20033;-84
2021/12/11 10:50:58;;;;;;;;;;;;;;;;;;5135398;27;20024;-85
2021/12/11 10:53:25;;;;;;;;;;;;;;;;;;5135428;27;20034;-83
2021/12/11 10:55:52;;;;;;;;;;;;;;;;;;5135085;27;20367;-85
2021/12/11 10:58:19;;;;;;;;;;;;;;;;;;5134836;27;20092;-86
2021/12/11 11:00:46;;;;;;;;;;;;;;;;;;5134802;27;20053;-85
2021/12/11 11:03:13;;;;;;;;;;;;;;;;;;5135067;27;20381;-85
2021/12/11 11:05:40;;;;;;;;;;;;;;;;;;5134696;27;19982;-87
2021/12/11 11:08:07;;;;;;;;;;;;;;;;;;5135021;27;20044;-85
2021/12/11 11:10:34;;;;;;;;;;;;;;;;;;5134316;27;20428;-85
2021/12/11 11:13:01;;;;;;;;;;;;;;;;;;5134556;27;19992;-84
2021/12/11 11:15:28;;;;;;;;;;;;;;;;;;5134104;27;20030;-85
2021/12/11 11:17:55;;;;;;;;;;;;;;;;;;5134594;27;20029;-85
2021/12/11 11:20:22;;;;;;;;;;;;;;;;;;5134157;27;20450;-85
2021/12/11 11:22:49;;;;;;;;;;;;;;;;;;5113820;28;19990;-85
2021/12/11 11:25:16;;;;;;;;;;;;;;;;;;5124831;27;20394;-85
2021/12/11 11:27:43;;;;;;;;;;;;;;;;;;5134351;27;20023;-85
2021/12/11 11:30:10;;;;;;;;;;;;;;;;;;5134325;27;20411;-85
2021/12/11 11:32:37;;;;;;;;;;;;;;;;;;5134392;27;20056;-85
2021/12/11 11:35:04;;;;;;;;;;;;;;;;;;5134466;27;20045;-84
2021/12/11 11:37:34;;;;;;;;;;;;;;;;;;5134741;27;20034;-85
2021/12/11 11:40:01;;;;;;;;;;;;;;;;;;5133964;27;19968;-85
2021/12/11 11:42:28;;;;;;;;;;;;;;;;;;5134462;27;20345;-85
2021/12/11 11:44:55;;;;;;;;;;;;;;;;;;5133957;27;20024;-85
2021/12/11 11:47:22;;;;;;;;;;;;;;;;;;5134410;28;20005;-85
2021/12/11 11:49:55;;;;;;;;;;;;;;;;;;5133898;27;20040;-84
2021/12/11 11:52:23;;;;;;;;;;;;;;;;;;5134298;27;20450;-85
2021/12/11 11:54:50;;;;;;;;;;;;;;;;;;5133987;27;19953;-85
2021/12/11 11:57:17;;;;;;;;;;;;;;;;;;5134302;27;20008;-84
2021/12/11 11:59:44;;;;;;;;;;;;;;;;;;5133934;27;19924;-85
2021/12/11 12:02:11;;;;;;;;;;;;;;;;;;5133191;27;20370;-85
2021/12/11 12:04:38;;;;;;;;;;;;;;;;;;5132071;27;20037;-84
2021/12/11 12:07:05;;;;;;;;;;;;;;;;;;5132458;27;20030;-84
2021/12/11 12:09:32;;;;;;;;;;;;;;;;;;5131745;27;19936;-85
2021/12/11 12:11:59;;;;;;;;;;;;;;;;;;5132581;28;19977;-85
2021/12/11 12:14:26;;;;;;;;;;;;;;;;;;5132029;27;19974;-84
2021/12/11 12:16:53;;;;;;;;;;;;;;;;;;5133062;27;20026;-85
2021/12/11 12:19:20;;;;;;;;;;;;;;;;;;5133920;27;20026;-85
2021/12/11 12:21:47;;;;;;;;;;;;;;;;;;5134145;27;20041;-85
2021/12/11 12:24:14;;;;;;;;;;;;;;;;;;5133878;27;20310;-84
2021/12/11 12:26:41;;;;;;;;;;;;;;;;;;5134122;27;19989;-84
2021/12/11 12:29:08;;;;;;;;;;;;;;;;;;5134194;28;19966;-84
2021/12/11 12:31:37;;;;;;;;;;;;;;;;;;5133724;27;19981;-85
2021/12/11 12:34:04;;;;;;;;;;;;;;;;;;5135317;27;19946;-83
2021/12/11 12:36:31;;;;;;;;;;;;;;;;;;5138236;27;20397;-85
2021/12/11 12:38:58;;;;;;;;;;;;;;;;;;5138303;27;19986;-85
2021/12/11 12:41:25;;;;;;;;;;;;;;;;;;5137695;27;20062;-84
2021/12/11 12:44:16;;;;;;;;;;;;;;;;;;5137857;27;20044;-85
2021/12/11 12:46:43;;;;;;;;;;;;;;;;;;5117325;28;19944;-85
2021/12/11 12:49:11;;;;;;;;;;;;;;;;;;5117289;28;20041;-84
2021/12/11 12:51:38;;;;;;;;;;;;;;;;;;5117263;28;19942;-84
2021/12/11 12:54:05;;;;;;;;;;;;;;;;;;5117307;28;19994;-85
2021/12/11 12:56:32;;;;;;;;;;;;;;;;;;5136590;27;19959;-85
2021/12/11 12:58:59;;;;;;;;;;;;;;;;;;5137547;27;20053;-84
2021/12/11 13:01:26;;;;;;;;;;;;;;;;;;5137100;27;19974;-84
2021/12/11 13:03:53;;;;;;;;;;;;;;;;;;5137688;27;19981;-84
2021/12/11 13:06:20;;;;;;;;;;;;;;;;;;5137369;27;20032;-85
2021/12/11 13:08:49;;;;;;;;;;;;;;;;;;5136744;27;19966;-84
2021/12/11 13:11:16;;;;;;;;;;;;;;;;;;5137455;27;19924;-85
2021/12/11 13:13:43;;;;;;;;;;;;;;;;;;5136819;27;20034;-84
2021/12/11 13:16:10;;;;;;;;;;;;;;;;;;5137239;27;20417;-84
2021/12/11 13:18:37;;;;;;;;;;;;;;;;;;5136911;27;19981;-85
2021/12/11 13:21:05;;;;;;;;;;;;;;;;;;5136899;27;20015;-84
2021/12/11 13:23:32;;;;;;;;;;;;;;;;;;5136259;27;20366;-84
2021/12/11 13:25:59;;;;;;;;;;;;;;;;;;5136610;27;20260;-84
2021/12/11 13:28:26;;;;;;;;;;;;;;;;;;5136722;27;19949;-85
2021/12/11 13:30:53;;;;;;;;;;;;;;;;;;5136668;27;20026;-85
2021/12/11 13:33:20;;;;;;;;;;;;;;;;;;5136829;27;19981;-85
2021/12/11 13:35:47;;;;;;;;;;;;;;;;;;5136974;27;20030;-84
2021/12/11 13:38:14;;;;;;;;;;;;;;;;;;5135508;27;19966;-84
2021/12/11 13:40:42;;;;;;;;;;;;;;;;;;5134821;27;20060;-84
2021/12/11 13:43:09;;;;;;;;;;;;;;;;;;5135192;27;19973;-84
2021/12/11 13:45:36;;;;;;;;;;;;;;;;;;5134601;27;19991;-84
2021/12/11 13:48:03;;;;;;;;;;;;;;;;;;5135474;27;19973;-84
2021/12/11 13:50:30;;;;;;;;;;;;;;;;;;5135071;27;20389;-83
2021/12/11 13:52:57;;;;;;;;;;;;;;;;;;5135336;27;19965;-84
2021/12/11 13:55:24;;;;;;;;;;;;;;;;;;5134945;27;20030;-84
2021/12/11 13:57:51;;;;;;;;;;;;;;;;;;5136072;27;19992;-84
2021/12/11 14:00:18;;;;;;;;;;;;;;;;;;5135516;27;20036;-84
2021/12/11 14:02:45;;;;;;;;;;;;;;;;;;5135763;27;20036;-84
2021/12/11 14:05:12;;;;;;;;;;;;;;;;;;5135636;27;20373;-84
2021/12/11 14:07:39;;;;;;;;;;;;;;;;;;5133167;27;20028;-84
2021/12/11 14:10:06;;;;;;;;;;;;;;;;;;5135743;27;19942;-84
2021/12/11 14:12:33;;;;;;;;;;;;;;;;;;5136085;27;19985;-85
2021/12/11 14:15:00;;;;;;;;;;;;;;;;;;5136017;27;19940;-85
2021/12/11 14:17:27;;;;;;;;;;;;;;;;;;5136188;27;20002;-85
2021/12/11 14:19:54;;;;;;;;;;;;;;;;;;5135921;27;20434;-78
2021/12/11 14:22:23;;;;;;;;;;;;;;;;;;5135925;27;20363;-85
2021/12/11 14:24:50;;;;;;;;;;;;;;;;;;5135888;27;19938;-84
2021/12/11 14:27:17;;;;;;;;;;;;;;;;;;5135811;27;20024;-83
2021/12/11 14:29:45;;;;;;;;;;;;;;;;;;5135506;27;20028;-84
2021/12/11 14:32:12;;;;;;;;;;;;;;;;;;5135395;27;19943;-85
2021/12/11 14:34:39;;;;;;;;;;;;;;;;;;5135131;27;20022;-85
2021/12/11 14:37:06;;;;;;;;;;;;;;;;;;5135596;27;20022;-85
2021/12/11 14:39:33;;;;;;;;;;;;;;;;;;5135136;27;20017;-86
2021/12/11 14:42:00;;;;;;;;;;;;;;;;;;5135742;27;19974;-85
2021/12/11 14:44:27;;;;;;;;;;;;;;;;;;5134944;27;20006;-86
2021/12/11 14:46:54;;;;;;;;;;;;;;;;;;5135666;27;20479;-86
2021/12/11 14:49:21;;;;;;;;;;;;;;;;;;5135208;27;19966;-86
2021/12/11 14:51:48;;;;;;;;;;;;;;;;;;5135375;27;19974;-86
2021/12/11 14:54:15;;;;;;;;;;;;;;;;;;5135115;27;20026;-86
2021/12/11 14:56:42;;;;;;;;;;;;;;;;;;5134570;27;20041;-87
2021/12/11 14:59:09;;;;;;;;;;;;;;;;;;5134944;27;20014;-86
2021/12/11 15:01:37;;;;;;;;;;;;;;;;;;5134759;27;20018;-85
2021/12/11 15:04:04;;;;;;;;;;;;;;;;;;5134803;27;20459;-85
2021/12/11 15:06:31;;;;;;;;;;;;;;;;;;5134992;27;19981;-86
2021/12/11 15:08:58;;;;;;;;;;;;;;;;;;5133968;27;20028;-85
2021/12/11 15:11:26;;;;;;;;;;;;;;;;;;5135238;27;20032;-85
2021/12/11 15:13:53;;;;;;;;;;;;;;;;;;5134797;27;19986;-85
2021/12/11 15:16:20;;;;;;;;;;;;;;;;;;5134982;27;19985;-86
2021/12/11 15:18:47;;;;;;;;;;;;;;;;;;5134610;27;20393;-86
2021/12/11 15:21:14;;;;;;;;;;;;;;;;;;5134835;27;20043;-85
2021/12/11 15:23:40;;;;;;;;;;;;;;;;;;5134704;27;20027;-86
2021/12/11 15:26:07;;;;;;;;;;;;;;;;;;5135167;27;19985;-86
2021/12/11 15:28:34;;;;;;;;;;;;;;;;;;5134453;27;19975;-86
2021/12/11 15:31:02;;;;;;;;;;;;;;;;;;5134817;27;20037;-86
2021/12/11 15:33:29;;;;;;;;;;;;;;;;;;5134474;27;19980;-86
2021/12/11 15:35:56;;;;;;;;;;;;;;;;;;5134698;27;20372;-86
2021/12/11 15:38:23;;;;;;;;;;;;;;;;;;5134122;27;19923;-85
2021/12/11 15:40:50;;;;;;;;;;;;;;;;;;5134263;27;20067;-85
2021/12/11 15:43:18;;;;;;;;;;;;;;;;;;5134496;27;20387;-86
2021/12/11 15:45:48;;;;;;;;;;;;;;;;;;5134792;27;19947;-86
2021/12/11 15:48:15;;;;;;;;;;;;;;;;;;5134418;27;19940;-85
2021/12/11 15:50:42;;;;;;;;;;;;;;;;;;5134514;27;19954;-86
2021/12/11 15:53:09;;;;;;;;;;;;;;;;;;5134171;28;20382;-86
2021/12/11 15:55:39;;;;;;;;;;;;;;;;;;5134695;28;20018;-86
2021/12/11 15:58:06;;;;;;;;;;;;;;;;;;5134214;27;19931;-86
2021/12/11 16:00:33;;;;;;;;;;;;;;;;;;5134373;27;20012;-85
2021/12/11 16:03:00;;;;;;;;;;;;;;;;;;5134556;27;19971;-86
2021/12/11 16:05:27;;;;;;;;;;;;;;;;;;5134709;27;19973;-86
2021/12/11 16:07:54;;;;;;;;;;;;;;;;;;5135130;27;19953;-86
2021/12/11 16:10:21;;;;;;;;;;;;;;;;;;5138297;27;20023;-85
2021/12/11 16:12:48;;;;;;;;;;;;;;;;;;5138141;27;19940;-86
2021/12/11 16:15:15;;;;;;;;;;;;;;;;;;5138467;27;20434;-86
2021/12/11 16:17:42;;;;;;;;;;;;;;;;;;5138020;27;20032;-86
2021/12/11 16:20:09;;;;;;;;;;;;;;;;;;5138315;27;19978;-86
2021/12/11 16:22:38;;;;;;;;;;;;;;;;;;5137950;27;20020;-86
2021/12/11 16:25:07;;;;;;;;;;;;;;;;;;5138146;27;19983;-86
2021/12/11 16:27:34;;;;;;;;;;;;;;;;;;5137427;27;19951;-86
2021/12/11 16:30:01;;;;;;;;;;;;;;;;;;5137468;27;20429;-86
2021/12/11 16:32:29;;;;;;;;;;;;;;;;;;5137539;27;19972;-86
2021/12/11 16:34:56;;;;;;;;;;;;;;;;;;5137464;27;20369;-86
2021/12/11 16:37:23;;;;;;;;;;;;;;;;;;5137338;27;19987;-86
2021/12/11 16:39:50;;;;;;;;;;;;;;;;;;5134365;27;20050;-85
2021/12/11 16:42:17;;;;;;;;;;;;;;;;;;5137094;27;20403;-86
2021/12/11 16:44:44;;;;;;;;;;;;;;;;;;5137193;27;20027;-86
2021/12/11 16:47:12;;;;;;;;;;;;;;;;;;5134593;27;19996;-87
2021/12/11 16:49:39;;;;;;;;;;;;;;;;;;5137182;27;19974;-86